Time;durP1;ratioP1;P1;durP2;ratioP2;P2;SDS_P1;SDS_P2;PMS_P1;PMS_P2;Temp;Humidity;BMP_temperature;BMP_pressure;BME280_temperature;BME280_humidity;BME280_pressure;Samples;Min_cycle;Max_cycle;Signal;HPM_P1;HPM_P2
2022/10/10 00:01:39;;;;;;;12.38;7.65;;;12.80;99.90;;;12.19;100.00;100795.53;5099690;23;20006;-82
2022/10/10 00:03:40;;;;;;;11.73;7.75;;;12.90;99.90;;;12.20;100.00;100786.63;5099489;23;20072;-82
2022/10/10 00:05:41;;;;;;;11.75;7.15;;;13.00;99.90;;;12.27;100.00;100793.88;5073404;23;20466;-82
2022/10/10 00:07:44;;;;;;;14.82;7.15;;;13.00;99.90;;;12.31;100.00;100798.66;5097946;23;20449;-82
2022/10/10 00:09:46;;;;;;;15.13;7.47;;;13.00;99.90;;;12.28;100.00;100798.16;5073835;23;20324;-82
2022/10/10 00:11:46;;;;;;;14.88;7.57;;;13.00;99.90;;;12.25;100.00;100801.13;5099088;23;20005;-82
2022/10/10 00:13:49;;;;;;;15.18;8.27;;;12.90;99.90;;;12.23;100.00;100806.59;5073554;23;20013;-82
2022/10/10 00:15:50;;;;;;;12.93;8.00;;;12.90;99.90;;;12.24;100.00;100802.16;5049134;23;20006;-82
2022/10/10 00:17:51;;;;;;;13.98;8.80;;;12.90;99.90;;;12.14;100.00;100803.13;5099335;23;20014;-82
2022/10/10 00:19:52;;;;;;;9.30;6.47;;;12.90;99.90;;;12.14;100.00;100819.00;5073543;23;20506;-82
2022/10/10 00:21:53;;;;;;;10.45;7.15;;;12.90;99.90;;;12.09;100.00;100816.03;5073337;23;20006;-82
2022/10/10 00:23:54;;;;;;;11.63;6.90;;;12.80;99.90;;;12.07;100.00;100818.00;5099290;23;20378;-82
2022/10/10 00:25:55;;;;;;;8.85;6.10;;;12.80;99.90;;;12.00;100.00;100805.59;5098887;23;20001;-82
2022/10/10 00:28:00;;;;;;;10.48;7.00;;;12.80;99.90;;;11.99;100.00;100810.06;5099123;23;20006;-82
2022/10/10 00:30:07;;;;;;;11.00;7.47;;;12.80;99.90;;;12.08;100.00;100808.25;5073358;23;20006;-82
2022/10/10 00:32:07;;;;;;;13.75;7.45;;;12.80;99.90;;;12.07;100.00;100815.34;5099053;23;20013;-81
2022/10/10 00:34:08;;;;;;;8.65;6.65;;;12.80;99.90;;;12.09;100.00;100816.03;5073332;23;20017;-82
2022/10/10 00:36:10;;;;;;;14.50;8.93;;;12.80;99.90;;;12.17;100.00;100810.75;5073126;23;20014;-82
2022/10/10 00:38:12;;;;;;;14.05;8.77;;;12.90;99.90;;;12.17;100.00;100801.97;5048527;23;20019;-82
2022/10/10 00:40:13;;;;;;;13.43;8.80;;;12.90;99.90;;;12.27;100.00;100807.09;5048673;23;20438;-82
2022/10/10 00:42:17;;;;;;;14.80;7.85;;;13.00;99.90;;;12.26;100.00;100802.81;5099081;23;20071;-82
2022/10/10 00:44:18;;;;;;;10.00;7.47;;;13.00;99.90;;;12.29;100.00;100810.41;5073264;23;20470;-82
2022/10/10 00:46:19;;;;;;;13.55;8.15;;;13.00;99.90;;;12.16;100.00;100795.84;5073089;23;20006;-82
2022/10/10 00:48:23;;;;;;;15.13;8.35;;;13.00;99.90;;;12.30;100.00;100812.06;5097573;23;20101;-82
2022/10/10 00:50:27;;;;;;;16.33;9.70;;;13.00;99.90;;;12.39;100.00;100811.91;5073164;23;20059;-82
2022/10/10 00:52:28;;;;;;;17.95;10.40;;;13.10;99.90;;;12.47;100.00;100813.72;5073318;23;20033;-82
2022/10/10 00:54:32;;;;;;;14.88;9.25;;;13.20;99.90;;;12.58;100.00;100821.31;5073184;23;20081;-82
2022/10/10 00:56:42;;;;;;;12.63;9.23;;;13.30;99.90;;;12.55;100.00;100814.53;5098711;23;20068;-82
2022/10/10 00:58:50;;;;;;;16.90;9.07;;;13.30;99.90;;;12.58;100.00;100816.00;5073995;23;20006;-81
2022/10/10 01:00:51;;;;;;;11.55;8.23;;;13.30;99.90;;;12.63;100.00;100822.44;5073903;23;20041;-82
2022/10/10 01:02:52;;;;;;;10.05;7.32;;;13.40;99.90;;;12.62;100.00;100820.81;5072696;23;20013;-82
2022/10/10 01:04:54;;;;;;;11.13;7.53;;;13.40;99.90;;;12.60;100.00;100822.78;5072995;23;20451;-81
2022/10/10 01:06:55;;;;;;;9.85;6.00;;;13.40;99.90;;;12.58;100.00;100810.72;5073493;23;20077;-81
2022/10/10 01:08:56;;;;;;;13.20;6.70;;;13.40;99.90;;;12.59;100.00;100829.09;5073049;23;20006;-82
2022/10/10 01:11:16;;;;;;;14.43;9.13;;;13.40;99.90;;;12.60;100.00;100824.63;5072762;23;20155;-81
2022/10/10 01:13:34;;;;;;;16.50;9.02;;;13.40;99.90;;;12.64;100.00;100831.22;5048866;23;20016;-82
2022/10/10 01:15:49;;;;;;;17.55;10.35;;;13.40;99.90;;;12.64;100.00;100836.50;5049618;23;20017;-81
2022/10/10 01:18:14;;;;;;;16.05;9.75;;;13.40;99.90;;;12.67;100.00;100836.19;5098856;23;20001;-81
2022/10/10 01:20:36;;;;;;;15.18;10.52;;;13.40;99.90;;;12.74;100.00;100829.22;5099019;23;20001;-82
2022/10/10 01:23:04;;;;;;;17.73;9.63;;;13.40;99.90;;;12.83;100.00;100830.88;5098789;23;20335;-82
2022/10/10 01:25:13;;;;;;;19.63;10.55;;;13.50;99.90;;;12.91;100.00;100825.56;5076304;23;20005;-82
2022/10/10 01:27:32;;;;;;;17.50;11.88;;;13.60;99.90;;;13.02;100.00;100829.69;5097132;23;20048;-82
2022/10/10 01:29:55;;;;;;;22.90;12.15;;;13.70;99.90;;;13.07;100.00;100819.41;5098874;23;20048;-82
2022/10/10 01:32:12;;;;;;;17.95;10.73;;;13.80;99.90;;;13.18;100.00;100834.94;5074633;23;20478;-82
2022/10/10 01:34:21;;;;;;;16.48;10.73;;;13.90;99.90;;;13.24;100.00;100824.50;5072483;23;20014;-82
2022/10/10 01:36:28;;;;;;;22.13;11.40;;;13.90;99.90;;;13.30;100.00;100823.81;5098529;23;20017;-82
2022/10/10 01:38:50;;;;;;;17.63;10.38;;;14.00;99.90;;;13.32;100.00;100820.19;5098296;23;20477;-83
2022/10/10 01:41:05;;;;;;;15.40;8.52;;;14.10;99.90;;;13.34;100.00;100816.34;5073877;23;20014;-82
2022/10/10 01:43:07;;;;;;;12.05;8.38;;;14.10;99.90;;;13.29;100.00;100810.72;5098645;23;20006;-82
2022/10/10 01:45:09;;;;;;;15.70;8.80;;;14.10;99.90;;;13.32;100.00;100804.28;5072726;23;20060;-82
2022/10/10 01:47:12;;;;;;;9.50;7.57;;;14.00;99.90;;;13.22;100.00;100801.84;5072543;23;20002;-82
2022/10/10 01:49:13;;;;;;;14.27;7.93;;;14.00;99.90;;;13.25;100.00;100817.38;5048271;23;20085;-82
2022/10/10 01:51:28;;;;;;;10.75;6.63;;;14.00;99.90;;;13.24;100.00;100826.31;5097106;23;20028;-82
2022/10/10 01:53:54;;;;;;;12.80;7.40;;;14.00;99.90;;;13.25;100.00;100828.81;5098821;23;20001;-82
2022/10/10 01:56:36;;;;;;;21.88;9.98;;;14.00;99.90;;;13.33;100.00;100822.66;5074784;23;20017;-82
2022/10/10 01:59:19;;;;;;;19.73;10.00;;;14.10;99.90;;;13.44;100.00;100835.50;5051672;23;20435;-82
2022/10/10 02:01:57;;;;;;;26.35;11.82;;;14.20;99.90;;;13.57;100.00;100835.78;5098814;23;20005;-82
2022/10/10 02:04:32;;;;;;;22.90;12.77;;;14.30;99.90;;;13.64;100.00;100826.16;5074853;23;20006;-81
2022/10/10 02:06:53;;;;;;;33.70;13.63;;;14.40;99.90;;;13.77;100.00;100837.00;5074486;23;20002;-82
2022/10/10 02:09:02;;;;;;;27.25;12.80;;;14.50;99.90;;;13.86;100.00;100851.88;5073151;23;20077;-82
2022/10/10 02:11:07;;;;;;;24.20;12.75;;;14.60;99.90;;;13.89;100.00;100852.53;5073166;23;20458;-82
2022/10/10 02:13:11;;;;;;;27.48;13.25;;;14.60;99.90;;;13.97;100.00;100855.13;5073093;23;20034;-82
2022/10/10 02:15:15;;;;;;;;;;;14.60;99.90;;;13.93;100.00;100857.31;5073241;23;20002;-82
2022/10/10 02:17:17;;;;;;;28.98;14.55;;;14.70;99.90;;;14.05;100.00;100865.69;5098368;23;20218;-82
2022/10/10 02:19:21;;;;;;;22.55;12.35;;;14.70;99.90;;;14.01;100.00;100865.19;5098401;23;20060;-82
2022/10/10 02:21:23;;;;;;;25.23;12.90;;;14.70;99.90;;;13.98;100.00;100862.91;5072896;23;20013;-82
2022/10/10 02:23:25;;;;;;;24.27;12.50;;;14.70;99.90;;;14.00;100.00;100871.53;5072658;23;20040;-83
2022/10/10 02:25:31;;;;;;;24.42;11.27;;;14.70;99.90;;;13.97;100.00;100863.91;5072221;23;20006;-82
2022/10/10 02:28:06;;;;;;;22.15;11.57;;;14.70;99.90;;;13.96;100.00;100851.66;5072985;23;20009;-81
2022/10/10 02:30:08;;;;;;;27.63;12.13;;;14.70;99.90;;;13.91;100.00;100829.31;5098304;23;20001;-82
2022/10/10 02:32:35;;;;;;;22.45;10.38;;;14.70;99.90;;;13.94;100.00;100836.91;5070385;23;20037;-82
2022/10/10 02:34:41;;;;;;;19.75;10.98;;;14.60;99.90;;;13.89;100.00;100829.47;5098382;23;20005;-81
2022/10/10 02:36:48;;;;;;;20.85;10.68;;;14.60;99.90;;;13.88;100.00;100853.53;5098062;23;20056;-82
2022/10/10 02:38:51;;;;;;;18.48;9.77;;;14.60;99.90;;;13.84;100.00;100868.97;5073033;23;20010;-82
2022/10/10 02:40:54;;;;;;;22.52;12.23;;;14.60;99.90;;;13.83;100.00;100867.28;5072178;23;20089;-82
2022/10/10 02:42:59;;;;;;;18.13;10.13;;;14.60;99.90;;;13.79;100.00;100858.06;5072714;23;20006;-82
2022/10/10 02:45:01;;;;;;;18.23;10.55;;;14.50;99.90;;;13.81;100.00;100864.00;5072725;23;20005;-82
2022/10/10 02:47:03;;;;;;;25.65;11.82;;;14.60;99.90;;;13.82;100.00;100869.16;5072477;23;20013;-82
2022/10/10 02:49:07;;;;;;;19.48;11.60;;;14.60;99.90;;;13.85;100.00;100870.63;5072955;23;20016;-82
2022/10/10 02:51:09;;;;;;;24.30;11.93;;;14.50;99.90;;;13.88;100.00;100867.63;5072413;23;20033;-83
2022/10/10 02:53:10;;;;;;;21.20;10.43;;;14.60;99.90;;;13.90;100.00;100864.78;5072637;23;20002;-82
2022/10/10 02:55:11;;;;;;;23.00;12.15;;;14.60;99.90;;;13.95;100.00;100876.50;5072203;23;20010;-82
2022/10/10 02:57:12;;;;;;;34.28;13.77;;;14.60;99.90;;;14.02;100.00;100869.53;5098268;23;20013;-82
2022/10/10 02:59:13;;;;;;;29.98;12.45;;;14.70;99.90;;;14.05;100.00;100869.16;5099440;23;20024;-82
2022/10/10 03:01:14;;;;;;;24.77;12.02;;;14.80;99.90;;;14.10;100.00;100869.47;5073986;23;20029;-82
2022/10/10 03:03:15;;;;;;;22.08;12.90;;;14.80;99.90;;;14.11;100.00;100875.59;5099897;23;20005;-82
2022/10/10 03:05:16;;;;;;;19.75;10.27;;;14.80;99.90;;;14.13;100.00;100874.41;5098319;23;20005;-82
2022/10/10 03:07:16;;;;;;;13.55;9.50;;;14.80;99.90;;;14.13;100.00;100874.41;5098423;23;20492;-82
2022/10/10 03:09:17;;;;;;;17.23;10.30;;;14.80;99.90;;;14.15;100.00;100872.44;5099777;23;20008;-82
2022/10/10 03:11:18;;;;;;;30.15;13.45;;;14.90;99.90;;;14.18;100.00;100872.09;5099656;23;20005;-82
2022/10/10 03:13:20;;;;;;;20.58;11.55;;;14.90;99.90;;;14.19;100.00;100873.72;5073896;23;20439;-82
2022/10/10 03:15:20;;;;;;;25.30;11.00;;;14.90;99.90;;;14.26;100.00;100879.97;5099794;23;20060;-82
2022/10/10 03:17:21;;;;;;;22.45;11.45;;;15.00;99.90;;;14.29;100.00;100887.59;5100049;23;20382;-82
2022/10/10 03:19:22;;;;;;;24.42;10.48;;;15.00;99.90;;;14.32;100.00;100889.91;5073864;23;20001;-82
2022/10/10 03:21:23;;;;;;;21.38;10.75;;;15.00;99.90;;;14.35;100.00;100888.72;5099698;23;20014;-82
2022/10/10 03:23:25;;;;;;;26.95;11.38;;;15.10;99.90;;;14.38;100.00;100893.69;5098204;23;20006;-82
2022/10/10 03:25:26;;;;;;;34.35;12.20;;;15.10;99.90;;;14.43;100.00;100887.84;5098217;23;20005;-82
2022/10/10 03:27:27;;;;;;;19.23;9.85;;;15.10;99.90;;;14.43;100.00;100895.81;5099779;23;20083;-82
2022/10/10 03:29:28;;;;;;;21.48;10.00;;;15.10;99.90;;;14.44;100.00;100886.84;5099697;23;20002;-83
2022/10/10 03:31:29;;;;;;;17.95;9.65;;;15.10;99.90;;;14.40;100.00;100884.53;5073850;23;20016;-82
2022/10/10 03:33:30;;;;;;;24.20;9.85;;;15.20;99.90;;;14.44;100.00;100895.63;5099761;23;20066;-82
2022/10/10 03:35:31;;;;;;;22.55;9.07;;;15.20;99.90;;;14.45;100.00;100896.47;5073027;23;20006;-82
2022/10/10 03:37:32;;;;;;;21.50;9.43;;;15.20;99.90;;;14.51;100.00;100906.38;5073362;23;20382;-82
2022/10/10 03:39:33;;;;;;;18.25;8.98;;;15.20;99.90;;;14.51;100.00;100893.94;5099395;23;20013;-82
2022/10/10 03:41:35;;;;;;;17.80;9.10;;;15.20;99.90;;;14.50;100.00;100902.88;5098917;23;20335;-82
2022/10/10 03:43:36;;;;;;;20.88;8.45;;;15.20;99.90;;;14.54;100.00;100903.38;5073540;23;20477;-82
2022/10/10 03:45:37;;;;;;;16.48;8.05;;;15.20;99.90;;;14.51;100.00;100901.06;5099364;23;20002;-82
2022/10/10 03:47:38;;;;;;;18.52;7.68;;;15.30;99.90;;;14.52;100.00;100910.66;5073718;23;20009;-82
2022/10/10 03:49:39;;;;;;;15.55;8.25;;;15.30;99.90;;;14.48;100.00;100902.25;5048948;23;20011;-82
2022/10/10 03:51:40;;;;;;;17.20;8.73;;;15.30;99.90;;;14.51;100.00;100898.41;5073860;23;20037;-82
2022/10/10 03:53:41;;;;;;;24.48;10.02;;;15.30;99.90;;;14.49;100.00;100898.56;5098260;23;20334;-82
2022/10/10 03:55:42;;;;;;;18.15;9.38;;;15.20;99.90;;;14.46;100.00;100906.06;5073401;23;20471;-82
2022/10/10 03:57:43;;;;;;;17.05;8.80;;;15.20;99.90;;;14.47;100.00;100894.44;5073474;23;20346;-82
2022/10/10 03:59:44;;;;;;;16.90;8.15;;;15.20;99.90;;;14.48;100.00;100909.38;5073572;23;20061;-82
2022/10/10 04:01:45;;;;;;;11.73;7.35;;;15.20;99.90;;;14.40;100.00;100883.72;5097923;23;20013;-82
2022/10/10 04:03:45;;;;;;;11.40;6.43;;;15.20;99.90;;;14.44;100.00;100886.84;5073571;23;20006;-82
2022/10/10 04:05:46;;;;;;;16.38;7.78;;;15.20;99.90;;;14.39;100.00;100882.09;5049114;23;20022;-82
2022/10/10 04:07:47;;;;;;;13.13;7.57;;;15.20;99.90;;;14.34;100.00;100890.56;5099178;23;20009;-82
2022/10/10 04:09:48;;;;;;;23.45;9.05;;;15.10;99.90;;;14.34;100.00;100893.22;5048368;23;20003;-82
2022/10/10 04:11:49;;;;;;;16.50;7.25;;;15.10;99.90;;;14.30;100.00;100902.50;5099445;23;20013;-82
2022/10/10 04:13:50;;;;;;;12.82;6.88;;;15.00;99.90;;;14.25;100.00;100896.06;5099536;23;20006;-82
2022/10/10 04:15:52;;;;;;;19.95;8.55;;;15.00;99.90;;;14.23;100.00;100895.41;5073508;23;20006;-82
2022/10/10 04:17:53;;;;;;;19.50;8.63;;;14.90;99.90;;;14.18;100.00;100903.91;5073495;23;20537;-82
2022/10/10 04:19:54;;;;;;;20.33;8.82;;;14.90;99.90;;;14.15;100.00;100917.53;5099425;23;20006;-82
2022/10/10 04:21:55;;;;;;;19.88;9.23;;;14.80;99.90;;;14.07;100.00;100919.38;5099088;23;20330;-83
2022/10/10 04:23:56;;;;;;;36.88;11.63;;;14.80;99.90;;;14.07;100.00;100922.03;5073450;23;20009;-82
2022/10/10 04:25:57;;;;;;;31.73;12.65;;;14.80;99.90;;;14.06;100.00;100936.31;5097457;23;20037;-83
2022/10/10 04:27:58;;;;;;;26.88;11.90;;;14.80;99.90;;;14.02;100.00;100940.31;5099366;23;20002;-83
2022/10/10 04:29:59;;;;;;;21.27;11.20;;;14.80;99.90;;;13.99;100.00;100938.00;5097659;23;20009;-82
2022/10/10 04:32:00;;;;;;;22.65;10.80;;;14.70;99.90;;;13.96;100.00;100947.13;5049076;23;20478;-82
2022/10/10 04:34:01;;;;;;;21.95;10.63;;;14.70;99.90;;;13.92;100.00;100945.81;5098767;23;20013;-82
2022/10/10 04:36:01;;;;;;;22.48;10.55;;;14.70;99.90;;;13.91;100.00;100944.19;5073336;23;20160;-82
2022/10/10 04:38:03;;;;;;;24.77;9.77;;;14.70;99.90;;;13.93;100.00;100958.09;5073024;23;20022;-82
2022/10/10 04:40:05;;;;;;;21.52;9.68;;;14.60;99.90;;;13.90;100.00;100942.50;5098863;23;20058;-83
2022/10/10 04:42:06;;;;;;;18.27;9.18;;;14.70;99.90;;;13.95;100.00;100942.81;5073228;23;20005;-82
2022/10/10 04:44:06;;;;;;;19.55;9.98;;;14.70;99.90;;;13.94;100.00;100943.84;5099412;23;20040;-82
2022/10/10 04:46:07;;;;;;;26.30;9.85;;;14.70;99.90;;;14.00;100.00;100953.75;5073230;23;20006;-83
2022/10/10 04:48:08;;;;;;;21.08;9.90;;;14.70;99.90;;;14.00;100.00;100943.16;5073213;23;20009;-83
2022/10/10 04:50:09;;;;;;;23.15;10.45;;;14.70;99.90;;;14.08;100.00;100952.88;5097610;23;20005;-82
2022/10/10 04:52:10;;;;;;;23.33;10.85;;;14.80;99.90;;;14.10;100.00;100959.66;5099044;23;20335;-82
2022/10/10 04:54:12;;;;;;;26.80;11.13;;;14.80;99.90;;;14.13;100.00;100955.81;5073183;23;20009;-83
2022/10/10 04:56:13;;;;;;;19.67;9.98;;;14.80;99.90;;;14.15;100.00;100957.31;5098687;23;20028;-82
2022/10/10 04:58:14;;;;;;;24.02;10.10;;;14.90;99.90;;;14.19;100.00;100957.78;5098928;23;20006;-83
2022/10/10 05:00:15;;;;;;;24.15;10.25;;;14.90;99.90;;;14.19;100.00;100955.97;5093234;23;20056;-83
2022/10/10 05:02:16;;;;;;;32.05;11.05;;;14.90;99.90;;;14.23;100.00;100965.22;5073006;23;20021;-83
2022/10/10 05:04:16;;;;;;;19.90;10.48;;;15.00;99.90;;;14.25;100.00;100963.22;5072736;23;20010;-82
2022/10/10 05:06:17;;;;;;;21.88;9.93;;;15.00;99.90;;;14.27;100.00;100960.41;5071085;23;20025;-82
2022/10/10 05:08:19;;;;;;;33.80;11.93;;;15.00;99.90;;;14.26;100.00;100953.44;5073197;23;20053;-83
2022/10/10 05:10:20;;;;;;;34.42;11.20;;;15.00;99.90;;;14.27;100.00;100961.25;5072811;23;20014;-83
2022/10/10 05:12:21;;;;;;;25.83;10.32;;;15.00;99.90;;;14.31;100.00;100965.19;5072972;23;20017;-83
2022/10/10 05:14:22;;;;;;;25.23;10.30;;;15.00;99.90;;;14.36;100.00;100973.50;5072671;23;20470;-82
2022/10/10 05:16:23;;;;;;;26.20;10.68;;;15.10;99.90;;;14.36;100.00;100965.53;5073251;23;20006;-83
2022/10/10 05:18:24;;;;;;;27.60;10.60;;;15.10;99.90;;;14.39;100.00;100974.97;5072623;23;20069;-83
2022/10/10 05:20:24;;;;;;;24.00;10.18;;;15.10;99.90;;;14.33;100.00;100957.09;5098798;23;20005;-83
2022/10/10 05:22:25;;;;;;;24.02;11.02;;;15.10;99.90;;;14.33;100.00;100971.19;5096874;23;20013;-83
2022/10/10 05:24:26;;;;;;;34.83;12.02;;;15.10;99.90;;;14.32;100.00;100973.97;5072563;23;20005;-82
2022/10/10 05:26:27;;;;;;;29.40;11.13;;;15.00;99.90;;;14.26;100.00;100975.50;5072646;23;20006;-82
2022/10/10 05:28:28;;;;;;;25.50;9.93;;;15.00;99.90;;;14.14;100.00;100965.44;5072480;23;20050;-82
2022/10/10 05:30:29;;;;;;;21.95;9.80;;;14.90;99.90;;;14.10;100.00;100972.91;5048282;23;20003;-83
2022/10/10 05:32:30;;;;;;;24.15;8.77;;;14.90;99.90;;;14.07;100.00;100975.91;5098832;23;20005;-83
2022/10/10 05:34:31;;;;;;;17.65;8.10;;;14.80;99.90;;;14.05;100.00;100980.56;5072955;23;20013;-82
2022/10/10 05:36:31;;;;;;;14.82;8.07;;;14.80;99.90;;;13.99;100.00;100978.63;5072808;23;20422;-82
2022/10/10 05:38:33;;;;;;;17.40;7.93;;;14.70;99.90;;;13.97;100.00;100990.41;5097248;23;20052;-83
2022/10/10 05:40:34;;;;;;;15.75;8.00;;;14.60;99.90;;;13.94;100.00;100988.91;5098377;23;20005;-83
2022/10/10 05:42:35;;;;;;;17.02;7.38;;;14.60;99.90;;;13.92;100.00;100996.19;5098308;23;20012;-83
2022/10/10 05:44:36;;;;;;;21.05;9.20;;;14.60;99.90;;;13.93;100.00;101005.81;5098588;23;20431;-83
2022/10/10 05:46:37;;;;;;;17.15;7.63;;;14.60;99.90;;;13.91;100.00;101002.53;5072376;23;20005;-82
2022/10/10 05:48:39;;;;;;;16.95;7.45;;;14.60;99.90;;;13.92;100.00;101012.13;5097187;23;20458;-82
2022/10/10 05:50:46;;;;;;;15.13;7.82;;;14.60;99.90;;;13.91;100.00;101010.47;5098706;23;20025;-83
2022/10/10 05:52:47;;;;;;;15.07;7.40;;;14.60;99.90;;;13.86;100.00;101005.66;5048396;23;20010;-83
2022/10/10 05:54:48;;;;;;;17.02;7.43;;;14.70;99.90;;;13.94;100.00;101017.25;5096775;23;20009;-84
2022/10/10 05:56:49;;;;;;;19.52;8.82;;;14.60;99.90;;;13.92;100.00;101020.06;5072373;23;20017;-83
2022/10/10 05:58:50;;;;;;;15.65;8.30;;;14.60;99.90;;;13.96;100.00;101018.75;5098527;23;20005;-83
2022/10/10 06:00:51;;;;;;;21.63;9.30;;;14.70;99.90;;;13.98;100.00;101016.72;5072338;23;20037;-83
2022/10/10 06:02:52;;;;;;;21.38;10.30;;;14.70;99.90;;;14.11;100.00;101016.19;5047964;23;20018;-84
2022/10/10 06:04:53;;;;;;;25.98;11.85;;;14.80;99.90;;;14.13;100.00;101012.38;5096617;23;20099;-84
2022/10/10 06:06:54;;;;;;;29.10;11.05;;;14.80;99.90;;;14.27;100.00;101021.44;5072286;23;20124;-83
2022/10/10 06:08:55;;;;;;;22.90;11.15;;;14.90;99.90;;;14.28;100.00;101018.59;5098403;23;20001;-83
2022/10/10 06:11:02;;;;;;;31.23;10.63;;;15.00;99.90;;;14.34;100.00;101028.56;5096073;23;20049;-83
2022/10/10 06:13:03;;;;;;;28.65;11.10;;;15.00;99.90;;;14.32;100.00;101019.94;5072490;23;20089;-83
2022/10/10 06:15:05;;;;;;;28.80;11.10;;;15.00;99.90;;;14.28;100.00;101023.91;5072640;23;20071;-83
2022/10/10 06:17:06;;;;;;;26.73;10.18;;;15.00;99.90;;;14.17;100.00;101019.00;5072658;23;20367;-83
2022/10/10 06:19:07;;;;;;;26.98;11.18;;;14.90;99.90;;;14.15;100.00;101017.50;5096880;23;20005;-83
2022/10/10 06:21:09;;;;;;;28.95;10.82;;;14.90;99.90;;;14.09;100.00;101016.38;5072438;23;20010;-83
2022/10/10 06:23:10;;;;;;;27.25;10.65;;;14.80;99.90;;;14.17;100.00;101034.91;5098292;23;20012;-83
2022/10/10 06:25:11;;;;;;;22.80;9.30;;;14.80;99.90;;;14.14;100.00;101043.22;5098014;23;20346;-83
2022/10/10 06:27:12;;;;;;;20.17;9.43;;;14.80;99.90;;;14.06;100.00;101032.63;5098305;23;20013;-83
2022/10/10 06:29:13;;;;;;;15.77;7.30;;;14.70;99.90;;;13.99;100.00;101042.28;5098348;23;20005;-82
2022/10/10 06:31:14;;;;;;;15.40;7.03;;;14.70;99.90;;;13.83;100.00;101043.13;5098598;23;20016;-83
2022/10/10 06:33:17;;;;;;;13.25;6.53;;;14.60;99.90;;;13.70;100.00;101037.56;5072103;23;20029;-83
2022/10/10 06:35:19;;;;;;;14.05;6.53;;;14.50;99.90;;;13.62;100.00;101040.19;5072744;23;20013;-83
2022/10/10 06:37:20;;;;;;;15.45;7.80;;;14.40;99.90;;;13.53;100.00;101057.09;5072180;23;20014;-84
2022/10/10 06:39:21;;;;;;;13.90;8.40;;;14.30;99.90;;;13.47;100.00;101063.06;5098489;23;20056;-84
2022/10/10 06:41:22;;;;;;;17.75;7.93;;;14.20;99.90;;;13.42;100.00;101064.56;5071739;23;19998;-84
2022/10/10 06:43:22;;;;;;;18.67;9.05;;;14.20;99.90;;;13.49;100.00;101071.69;5096509;23;20009;-85
2022/10/10 06:45:24;;;;;;;20.73;9.27;;;14.20;99.90;;;13.51;100.00;101074.19;5072159;23;20012;-84
2022/10/10 06:47:25;;;;;;;22.08;8.63;;;14.20;99.90;;;13.57;100.00;101084.94;5071943;23;20009;-83
2022/10/10 06:49:26;;;;;;;16.00;7.20;;;14.20;99.90;;;13.56;100.00;101079.81;5098366;23;20029;-84
2022/10/10 06:51:27;;;;;;;13.13;7.25;;;14.30;99.90;;;13.62;100.00;101084.47;5048217;23;20013;-83
2022/10/10 06:53:29;;;;;;;16.92;8.38;;;14.40;99.90;;;13.70;100.00;101100.34;5072470;23;20002;-84
2022/10/10 06:55:30;;;;;;;18.42;8.20;;;14.40;99.90;;;13.68;100.00;101103.16;5072184;23;20002;-84
2022/10/10 06:57:31;;;;;;;16.40;8.93;;;14.40;99.90;;;13.73;100.00;101105.31;5048127;23;20030;-84
2022/10/10 06:59:32;;;;;;;17.70;8.48;;;14.50;99.90;;;13.76;100.00;101104.97;5072297;23;20017;-84
2022/10/10 07:01:33;;;;;;;16.30;8.65;;;14.50;99.90;;;13.81;100.00;101108.78;5096940;23;20017;-84
2022/10/10 07:03:34;;;;;;;17.85;8.52;;;14.50;99.90;;;13.82;100.00;101117.56;5072453;23;20006;-84
2022/10/10 07:05:35;;;;;;;14.52;8.55;;;14.50;99.90;;;13.84;100.00;101123.53;5048118;23;20010;-84
2022/10/10 07:07:36;;;;;;;21.27;9.38;;;14.50;99.90;;;13.87;100.00;101128.50;5098161;23;20009;-83
2022/10/10 07:09:37;;;;;;;16.75;7.60;;;14.60;99.90;;;13.84;100.00;101118.22;5097746;23;20083;-84
2022/10/10 07:11:40;;;;;;;19.80;8.70;;;14.60;99.90;;;13.89;100.00;101131.00;5072647;23;20010;-84
2022/10/10 07:13:41;;;;;;;24.33;9.73;;;14.60;99.90;;;13.88;100.00;101119.53;5098249;23;20449;-84
2022/10/10 07:15:42;;;;;;;35.38;13.65;;;14.60;99.90;;;13.97;100.00;101125.66;5072384;23;20014;-84
2022/10/10 07:17:43;;;;;;;28.38;11.00;;;14.70;99.90;;;14.01;100.00;101130.44;5098191;23;20014;-84
2022/10/10 07:19:44;;;;;;;30.20;13.15;;;14.70;99.90;;;14.08;100.00;101123.47;5072314;23;20030;-84
2022/10/10 07:21:45;;;;;;;22.45;11.52;;;14.80;99.90;;;14.12;100.00;101124.81;5098095;23;20005;-83
2022/10/10 07:23:46;;;;;;;31.23;14.68;;;14.80;99.90;;;14.19;100.00;101117.81;5072145;23;20013;-84
2022/10/10 07:25:47;;;;;;;30.70;15.00;;;14.90;99.90;;;14.32;100.00;101138.50;5096384;23;20366;-84
2022/10/10 07:27:48;;;;;;;33.90;15.93;;;15.00;99.90;;;14.38;100.00;101133.38;5097585;23;20101;-84
2022/10/10 07:29:49;;;;;;;28.83;13.77;;;15.00;99.90;;;14.47;100.00;101136.84;5098118;23;20338;-84
2022/10/10 07:31:50;;;;;;;38.42;15.93;;;15.10;99.90;;;14.54;100.00;101139.63;5096547;23;20343;-84
2022/10/10 07:33:51;;;;;;;27.67;13.25;;;15.20;99.90;;;14.63;100.00;101147.41;5098139;23;20005;-84
2022/10/10 07:35:55;;;;;;;25.77;11.30;;;15.30;99.90;;;14.72;100.00;101146.38;5098274;23;20006;-84
2022/10/10 07:37:56;;;;;;;21.50;11.38;;;15.40;99.90;;;14.81;100.00;101155.13;5071961;23;20029;-84
2022/10/10 07:39:57;;;;;;;17.17;10.52;;;15.50;99.90;;;14.87;100.00;101155.22;5096253;23;20347;-84
2022/10/10 07:41:58;;;;;;;21.73;10.48;;;15.60;99.90;;;14.98;100.00;101159.34;5096620;23;20013;-84
2022/10/10 07:43:59;;;;;;;17.52;9.50;;;15.70;99.90;;;15.05;100.00;101154.16;5071801;23;20010;-84
2022/10/10 07:46:00;;;;;;;13.48;8.68;;;15.80;99.90;;;15.21;100.00;101165.50;5073119;23;20037;-84
2022/10/10 07:48:01;;;;;;;15.27;8.27;;;15.90;99.90;;;15.33;100.00;101172.06;5075160;23;20009;-84
2022/10/10 07:50:03;;;;;;;21.42;9.82;;;16.10;99.90;;;15.44;100.00;101174.31;5075120;23;20009;-84
2022/10/10 07:52:04;;;;;;;15.93;9.00;;;16.20;99.90;;;15.57;100.00;101172.94;5073867;23;20068;-84
2022/10/10 07:54:05;;;;;;;25.13;9.98;;;16.30;99.90;;;15.71;100.00;101175.66;5073992;23;20343;-84
2022/10/10 07:56:08;;;;;;;28.88;12.23;;;16.40;99.90;;;15.72;100.00;101165.84;5074852;23;20017;-84
2022/10/10 07:58:11;;;;;;;26.70;10.35;;;16.50;99.90;;;15.90;100.00;101172.50;5098039;23;20006;-84
2022/10/10 08:00:13;;;;;;;21.20;8.60;;;16.60;99.90;;;16.09;100.00;101165.84;5098043;23;20006;-84
2022/10/10 08:02:14;;;;;;;26.33;9.45;;;16.70;99.90;;;16.14;100.00;101175.94;5073451;23;20052;-84
2022/10/10 08:04:15;;;;;;;31.05;10.02;;;16.90;99.90;;;16.32;100.00;101166.59;5073575;23;20002;-84
2022/10/10 08:06:17;;;;;;;29.63;8.32;;;17.00;99.90;;;16.43;100.00;101155.47;5049193;23;20033;-84
2022/10/10 08:08:18;;;;;;;33.13;9.00;;;17.10;99.90;;;16.48;100.00;101157.59;5073705;23;20077;-84
2022/10/10 08:10:19;;;;;;;27.92;8.23;;;17.20;99.90;;;16.46;100.00;101152.44;5073393;23;20427;-84
2022/10/10 08:12:20;;;;;;;26.65;8.32;;;17.30;99.90;;;16.73;100.00;101161.66;5049175;23;20369;-84
2022/10/10 08:14:21;;;;;;;20.42;7.53;;;17.40;99.90;;;16.93;100.00;101173.41;5097923;23;20005;-84
2022/10/10 08:16:22;;;;;;;21.40;7.13;;;17.50;99.90;;;17.01;100.00;101164.44;5097860;23;20009;-84
2022/10/10 08:18:23;;;;;;;23.88;8.05;;;17.60;99.90;;;16.95;100.00;101173.19;5073529;23;20030;-84
2022/10/10 08:20:23;;;;;;;27.10;8.45;;;17.70;99.90;;;16.84;100.00;101179.84;5073461;23;20021;-84
2022/10/10 08:22:24;;;;;;;21.85;7.40;;;17.60;99.90;;;16.82;100.00;101181.00;5049005;23;20011;-84